createdAt,value
2019-03-05T00:00:39.856Z,982.92
2019-03-05T00:01:39.838Z,982.93
2019-03-05T00:02:39.817Z,982.93
2019-03-05T00:03:39.800Z,982.92
2019-03-05T00:04:39.779Z,982.89
2019-03-05T00:05:39.760Z,982.85
2019-03-05T00:06:39.740Z,982.87
2019-03-05T00:07:39.715Z,982.90
2019-03-05T00:08:39.703Z,982.90
2019-03-05T00:09:39.682Z,982.86
2019-03-05T00:10:39.666Z,982.86
2019-03-05T00:11:39.645Z,982.83
2019-03-05T00:12:39.624Z,982.85
2019-03-05T00:13:39.608Z,982.83
2019-03-05T00:14:39.591Z,982.86
2019-03-05T00:15:39.569Z,982.83
2019-03-05T00:16:39.546Z,982.89
2019-03-05T00:17:39.531Z,982.87
2019-03-05T00:18:39.510Z,982.84
2019-03-05T00:19:39.493Z,982.89
2019-03-05T00:20:39.474Z,982.94
2019-03-05T00:21:39.453Z,982.89
2019-03-05T00:22:39.434Z,982.93
2019-03-05T00:23:39.408Z,982.85
2019-03-05T00:24:39.403Z,982.88
2019-03-05T00:25:39.376Z,982.92
2019-03-05T00:26:39.358Z,982.96
2019-03-05T00:27:39.343Z,982.88
2019-03-05T00:28:39.318Z,982.95
2019-03-05T00:29:39.300Z,982.92
2019-03-05T00:30:39.280Z,982.90
2019-03-05T00:31:39.263Z,982.89
2019-03-05T00:32:39.244Z,982.93
2019-03-05T00:33:39.224Z,982.90
2019-03-05T00:34:39.205Z,982.91
2019-03-05T00:35:39.187Z,982.94
2019-03-05T00:36:39.170Z,982.89
2019-03-05T00:37:39.148Z,982.95
2019-03-05T00:38:39.127Z,982.94
2019-03-05T00:39:39.114Z,982.88
2019-03-05T00:40:39.091Z,982.88
2019-03-05T00:41:39.071Z,982.85
2019-03-05T00:42:39.053Z,982.84
2019-03-05T00:43:39.038Z,982.84
2019-03-05T00:44:39.012Z,982.90
2019-03-05T00:45:38.996Z,982.94
2019-03-05T00:46:38.975Z,982.84
2019-03-05T00:47:38.956Z,982.84
2019-03-05T00:48:38.940Z,982.81
2019-03-05T00:49:38.917Z,982.81
2019-03-05T00:50:38.899Z,982.69
2019-03-05T00:51:38.891Z,982.92
2019-03-05T00:52:38.860Z,982.78
2019-03-05T00:53:38.841Z,982.91
2019-03-05T00:54:38.822Z,982.92
2019-03-05T00:55:38.805Z,982.93
2019-03-05T00:56:38.783Z,982.94
2019-03-05T00:57:38.763Z,982.93
2019-03-05T00:58:38.745Z,983.09
2019-03-05T00:59:38.727Z,983.11
2019-03-05T01:00:38.707Z,983.06
2019-03-05T01:01:38.688Z,982.93
2019-03-05T01:02:38.669Z,982.98
2019-03-05T01:03:38.650Z,983.10
2019-03-05T01:04:38.632Z,983.12
2019-03-05T01:05:38.693Z,983.12
2019-03-05T01:06:38.592Z,983.18
2019-03-05T01:07:38.575Z,983.16
2019-03-05T01:08:38.553Z,983.16
2019-03-05T01:09:38.533Z,983.27
2019-03-05T01:10:38.516Z,983.23
2019-03-05T01:11:38.498Z,983.26
2019-03-05T01:12:38.476Z,983.28
2019-03-05T01:13:38.458Z,983.21
2019-03-05T01:14:38.439Z,983.22
2019-03-05T01:15:38.421Z,983.19
2019-03-05T01:16:38.398Z,983.24
2019-03-05T01:17:38.383Z,983.22
2019-03-05T01:18:38.368Z,983.28
2019-03-05T01:19:38.343Z,983.33
2019-03-05T01:20:38.323Z,983.28
2019-03-05T01:21:38.305Z,983.24
2019-03-05T01:22:38.286Z,983.30
2019-03-05T01:23:38.266Z,983.28
2019-03-05T01:24:38.245Z,983.29
2019-03-05T01:25:38.226Z,983.44
2019-03-05T01:26:38.210Z,983.34
2019-03-05T01:27:38.189Z,983.47
2019-03-05T01:28:38.174Z,983.35
2019-03-05T01:29:38.152Z,983.39
2019-03-05T01:30:38.135Z,983.33
2019-03-05T01:31:38.113Z,983.35
2019-03-05T01:32:38.096Z,983.37
2019-03-05T01:33:38.072Z,983.34
2019-03-05T01:34:38.058Z,983.28
2019-03-05T01:35:38.037Z,983.31
2019-03-05T01:36:38.017Z,983.35
2019-03-05T01:37:37.999Z,983.27
2019-03-05T01:38:37.991Z,983.26
2019-03-05T01:39:37.961Z,983.26
2019-03-05T01:40:37.942Z,983.21
2019-03-05T01:41:37.923Z,983.27
2019-03-05T01:42:37.903Z,983.31
2019-03-05T01:43:37.889Z,983.24
2019-03-05T01:44:37.868Z,983.25
2019-03-05T01:45:37.847Z,983.25
2019-03-05T01:46:37.830Z,983.31
2019-03-05T01:47:37.807Z,983.36
2019-03-05T01:48:37.792Z,983.23
2019-03-05T01:49:37.770Z,983.24
2019-03-05T01:50:37.751Z,983.23
2019-03-05T01:51:37.731Z,983.29
2019-03-05T01:52:37.710Z,983.31
2019-03-05T01:53:37.696Z,983.26
2019-03-05T01:54:37.676Z,983.35
2019-03-05T01:55:37.654Z,983.39
2019-03-05T01:56:37.640Z,983.30
2019-03-05T01:57:37.618Z,983.29
2019-03-05T01:58:37.595Z,983.20
2019-03-05T01:59:37.576Z,983.27
2019-03-05T02:00:37.558Z,983.27
2019-03-05T02:01:37.540Z,983.30
2019-03-05T02:02:37.521Z,983.28
2019-03-05T02:03:37.502Z,983.26
2019-03-05T02:04:37.489Z,983.31
2019-03-05T02:05:37.463Z,983.27
2019-03-05T02:06:37.442Z,983.27
2019-03-05T02:07:37.425Z,983.27
2019-03-05T02:08:37.407Z,983.41
2019-03-05T02:09:37.388Z,983.32
2019-03-05T02:10:37.367Z,983.30
2019-03-05T02:11:37.351Z,983.33
2019-03-05T02:12:37.330Z,983.24
2019-03-05T02:13:37.314Z,983.31
2019-03-05T02:14:37.290Z,983.36
2019-03-05T02:15:37.271Z,983.26
2019-03-05T02:16:37.256Z,983.30
2019-03-05T02:17:37.234Z,983.28
2019-03-05T02:18:37.217Z,983.22
2019-03-05T02:19:37.194Z,983.34
2019-03-05T02:20:37.183Z,983.24
2019-03-05T02:21:37.163Z,983.33
2019-03-05T02:22:37.140Z,983.30
2019-03-05T02:23:37.119Z,983.33
2019-03-05T02:24:37.103Z,983.28
2019-03-05T02:25:37.083Z,983.21
2019-03-05T02:26:37.062Z,983.27
2019-03-05T02:27:37.043Z,983.20
2019-03-05T02:28:37.023Z,983.22
2019-03-05T02:29:37.003Z,983.20
2019-03-05T02:30:36.985Z,983.20
2019-03-05T02:31:36.966Z,983.22
2019-03-05T02:32:36.949Z,983.17
2019-03-05T02:33:36.927Z,983.29
2019-03-05T02:34:36.910Z,983.25
2019-03-05T02:35:36.889Z,983.24
2019-03-05T02:36:36.872Z,983.23
2019-03-05T02:37:36.852Z,983.22
2019-03-05T02:38:36.836Z,983.22
2019-03-05T02:39:36.829Z,983.25
2019-03-05T02:40:36.789Z,983.31
2019-03-05T02:41:36.775Z,983.16
2019-03-05T02:42:36.755Z,983.19
2019-03-05T02:43:36.734Z,983.10
2019-03-05T02:44:36.718Z,983.11
2019-03-05T02:45:36.700Z,983.22
2019-03-05T02:46:36.679Z,983.25
2019-03-05T02:47:36.662Z,983.23
2019-03-05T02:48:36.641Z,983.19
2019-03-05T02:49:36.630Z,983.25
2019-03-05T02:50:36.605Z,983.27
2019-03-05T02:51:36.582Z,983.30
2019-03-05T02:52:36.565Z,983.29
2019-03-05T02:53:36.547Z,983.24
2019-03-05T02:54:36.530Z,983.23
2019-03-05T02:55:36.507Z,983.18
2019-03-05T02:56:36.489Z,983.21
2019-03-05T02:57:36.473Z,983.21
2019-03-05T02:58:36.450Z,983.20
2019-03-05T02:59:36.434Z,983.23
2019-03-05T03:00:36.414Z,983.18
2019-03-05T03:01:36.407Z,983.21
2019-03-05T03:02:36.375Z,983.23
2019-03-05T03:03:36.362Z,983.19
2019-03-05T03:04:36.336Z,983.22
2019-03-05T03:05:36.318Z,983.23
2019-03-05T03:06:36.299Z,983.30
2019-03-05T03:07:36.282Z,983.23
2019-03-05T03:08:36.271Z,983.26
2019-03-05T03:09:36.241Z,983.21
2019-03-05T03:10:36.233Z,983.19
2019-03-05T03:11:36.200Z,983.24
2019-03-05T03:12:36.186Z,983.19
2019-03-05T03:13:36.163Z,983.19
2019-03-05T03:14:36.144Z,983.22
2019-03-05T03:15:36.131Z,983.13
2019-03-05T03:16:36.105Z,983.22
2019-03-05T03:17:36.090Z,983.29
2019-03-05T03:18:36.068Z,983.27
2019-03-05T03:19:36.049Z,983.24
2019-03-05T03:20:36.037Z,983.25
2019-03-05T03:21:36.011Z,983.26
2019-03-05T03:22:35.991Z,983.27
2019-03-05T03:23:35.971Z,983.28
2019-03-05T03:24:35.957Z,983.34
2019-03-05T03:25:35.937Z,983.24
2019-03-05T03:26:35.915Z,983.31
2019-03-05T03:27:35.895Z,983.28
2019-03-05T03:28:35.879Z,983.24
2019-03-05T03:29:35.859Z,983.25
2019-03-05T03:30:35.848Z,983.22
2019-03-05T03:31:35.819Z,983.24
2019-03-05T03:32:35.802Z,983.25
2019-03-05T03:33:35.789Z,983.33
2019-03-05T03:34:35.796Z,983.30
2019-03-05T03:35:35.741Z,983.30
2019-03-05T03:36:35.723Z,983.31
2019-03-05T03:37:35.757Z,983.34
2019-03-05T03:38:35.724Z,983.30
2019-03-05T03:39:35.663Z,983.33
2019-03-05T03:40:35.657Z,983.30
2019-03-05T03:41:35.627Z,983.35
2019-03-05T03:42:35.608Z,983.38
2019-03-05T03:43:35.590Z,983.38
2019-03-05T03:44:35.569Z,983.41
2019-03-05T03:45:35.552Z,983.46
2019-03-05T03:46:35.534Z,983.31
2019-03-05T03:47:35.514Z,983.47
2019-03-05T03:48:35.493Z,983.36
2019-03-05T03:49:35.475Z,983.49
2019-03-05T03:50:35.457Z,983.43
2019-03-05T03:51:35.435Z,983.46
2019-03-05T03:52:35.415Z,983.47
2019-03-05T03:53:35.407Z,983.49
2019-03-05T03:54:35.376Z,983.44
2019-03-05T03:55:35.357Z,983.51
2019-03-05T03:56:35.344Z,983.61
2019-03-05T03:57:35.335Z,983.55
2019-03-05T03:58:35.309Z,983.62
2019-03-05T03:59:35.279Z,983.61
2019-03-05T04:00:35.263Z,983.58
2019-03-05T04:01:35.248Z,983.59
2019-03-05T04:02:35.223Z,983.57
2019-03-05T04:03:35.219Z,983.58
2019-03-05T04:04:35.187Z,983.55
2019-03-05T04:05:35.166Z,983.58
2019-03-05T04:06:35.147Z,983.56
2019-03-05T04:07:35.127Z,983.54
2019-03-05T04:08:35.109Z,983.61
2019-03-05T04:09:35.093Z,983.61
2019-03-05T04:10:35.069Z,983.59
2019-03-05T04:11:35.052Z,983.57
2019-03-05T04:12:35.033Z,983.58
2019-03-05T04:13:35.027Z,983.65
2019-03-05T04:14:34.995Z,983.67
2019-03-05T04:15:34.978Z,983.63
2019-03-05T04:16:34.957Z,983.61
2019-03-05T04:17:34.937Z,983.64
2019-03-05T04:18:34.930Z,983.60
2019-03-05T04:19:34.912Z,983.62
2019-03-05T04:20:34.882Z,983.67
2019-03-05T04:21:34.867Z,983.72
2019-03-05T04:22:34.839Z,983.69
2019-03-05T04:23:34.824Z,983.72
2019-03-05T04:24:34.802Z,983.65
2019-03-05T04:25:34.787Z,983.72
2019-03-05T04:26:34.763Z,983.68
2019-03-05T04:27:34.744Z,983.72
2019-03-05T04:28:34.727Z,983.68
2019-03-05T04:29:34.720Z,983.67
2019-03-05T04:30:34.687Z,983.71
2019-03-05T04:31:34.669Z,983.69
2019-03-05T04:32:34.667Z,983.70
2019-03-05T04:33:34.633Z,983.74
2019-03-05T04:36:14.967Z,983.70
2019-03-05T04:37:14.931Z,983.72
2019-03-05T04:39:07.815Z,983.77
2019-03-05T04:40:07.777Z,983.74
2019-03-05T04:42:00.647Z,983.66
2019-03-05T04:43:00.603Z,983.72
2019-03-05T04:44:53.468Z,983.61
2019-03-05T04:45:53.435Z,983.59
2019-03-05T04:47:54.440Z,983.63
2019-03-05T04:48:46.293Z,983.61
2019-03-05T04:50:39.136Z,983.67
2019-03-05T04:51:39.100Z,983.69
2019-03-05T04:53:31.959Z,983.68
2019-03-05T04:54:31.932Z,983.67
2019-03-05T04:55:31.911Z,983.68
2019-03-05T04:56:31.892Z,983.68
2019-03-05T04:57:31.869Z,983.71
2019-03-05T04:58:31.852Z,983.72
2019-03-05T04:59:31.833Z,983.79
2019-03-05T05:00:31.824Z,983.75
2019-03-05T05:01:31.795Z,983.77
2019-03-05T05:02:31.775Z,983.77
2019-03-05T05:03:31.756Z,983.78
2019-03-05T05:04:31.737Z,983.81
2019-03-05T05:05:31.723Z,983.80
2019-03-05T05:06:31.700Z,983.80
2019-03-05T05:07:31.678Z,983.80
2019-03-05T05:08:31.659Z,983.82
2019-03-05T05:09:31.639Z,983.81
2019-03-05T05:10:31.621Z,983.78
2019-03-05T05:11:31.601Z,983.80
2019-03-05T05:12:31.581Z,983.81
2019-03-05T05:13:31.563Z,983.77
2019-03-05T05:14:31.547Z,983.83
2019-03-05T05:15:31.528Z,983.83
2019-03-05T05:16:31.509Z,983.84
2019-03-05T05:17:31.484Z,983.81
2019-03-05T05:18:31.469Z,983.84
2019-03-05T05:19:31.446Z,983.86
2019-03-05T05:20:31.426Z,983.83
2019-03-05T05:21:31.408Z,983.84
2019-03-05T05:22:31.390Z,983.83
2019-03-05T05:23:31.368Z,983.86
2019-03-05T05:24:31.353Z,983.85
2019-03-05T05:25:31.331Z,983.85
2019-03-05T05:26:31.338Z,983.85
2019-03-05T05:27:31.290Z,983.79
2019-03-05T05:28:31.272Z,983.83
2019-03-05T05:29:31.252Z,983.80
2019-03-05T05:30:31.234Z,983.78
2019-03-05T05:31:31.221Z,983.77
2019-03-05T05:32:31.197Z,983.72
2019-03-05T05:33:31.176Z,983.71
2019-03-05T05:34:31.158Z,983.68
2019-03-05T05:35:31.144Z,983.68
2019-03-05T05:36:31.117Z,983.75
2019-03-05T05:37:31.111Z,983.79
2019-03-05T05:38:31.080Z,983.82
2019-03-05T05:39:31.060Z,983.85
2019-03-05T05:40:31.048Z,983.79
2019-03-05T05:41:31.022Z,983.86
2019-03-05T05:42:31.003Z,983.83
2019-03-05T05:43:30.983Z,983.78
2019-03-05T05:44:30.965Z,983.82
2019-03-05T05:45:30.955Z,983.78
2019-03-05T05:46:30.928Z,983.79
2019-03-05T05:47:30.907Z,983.78
2019-03-05T05:48:30.887Z,983.82
2019-03-05T05:49:30.872Z,983.81
2019-03-05T05:50:30.850Z,983.86
2019-03-05T05:51:30.827Z,983.84
2019-03-05T05:52:30.809Z,983.79
2019-03-05T05:53:30.790Z,983.75
2019-03-05T05:54:30.773Z,983.74
2019-03-05T05:55:30.755Z,983.81
2019-03-05T05:56:30.732Z,983.79
2019-03-05T05:57:30.712Z,983.78
2019-03-05T05:58:30.693Z,983.80
2019-03-05T05:59:30.673Z,983.75
2019-03-05T06:00:30.654Z,983.74
2019-03-05T06:01:30.635Z,983.73
2019-03-05T06:02:30.616Z,983.79
2019-03-05T06:03:30.602Z,983.77
2019-03-05T06:04:30.576Z,983.75
2019-03-05T06:05:30.560Z,983.75
2019-03-05T06:06:30.541Z,983.77
2019-03-05T06:07:30.517Z,983.74
2019-03-05T06:08:30.496Z,983.80
2019-03-05T06:09:30.478Z,983.79
2019-03-05T06:10:30.461Z,983.83
2019-03-05T06:11:30.439Z,983.83
2019-03-05T06:12:30.424Z,983.89
2019-03-05T06:13:30.405Z,983.87
2019-03-05T06:14:30.388Z,983.86
2019-03-05T06:15:30.363Z,983.88
2019-03-05T06:16:30.343Z,983.85
2019-03-05T06:17:30.325Z,983.81
2019-03-05T06:18:30.301Z,983.83
2019-03-05T06:19:30.294Z,983.84
2019-03-05T06:20:30.269Z,983.90
2019-03-05T06:21:30.246Z,983.94
2019-03-05T06:22:30.228Z,983.90
2019-03-05T06:23:30.209Z,983.93
2019-03-05T06:24:30.194Z,983.95
2019-03-05T06:25:30.172Z,983.90
2019-03-05T06:26:30.152Z,983.86
2019-03-05T06:27:30.135Z,983.86
2019-03-05T06:28:30.111Z,983.86
2019-03-05T06:29:30.095Z,983.83
2019-03-05T06:30:30.074Z,983.84
2019-03-05T06:31:30.056Z,983.88
2019-03-05T06:32:30.035Z,983.88
2019-03-05T06:33:30.016Z,983.86
2019-03-05T06:34:29.996Z,983.84
2019-03-05T06:35:29.979Z,983.87
2019-03-05T06:36:29.957Z,983.85
2019-03-05T06:37:29.939Z,983.88
2019-03-05T06:38:29.920Z,983.97
2019-03-05T06:39:29.900Z,983.90
2019-03-05T06:40:29.879Z,983.93
2019-03-05T06:41:29.860Z,983.95
2019-03-05T06:42:29.842Z,984.00
2019-03-05T06:43:29.819Z,983.96
2019-03-05T06:44:29.802Z,983.93
2019-03-05T06:45:29.785Z,983.98
2019-03-05T06:46:29.764Z,984.05
2019-03-05T06:47:29.743Z,984.02
2019-03-05T06:48:29.736Z,984.01
2019-03-05T06:49:29.707Z,984.02
2019-03-05T06:50:29.688Z,983.96
2019-03-05T06:51:29.668Z,983.96
2019-03-05T06:52:29.652Z,984.02
2019-03-05T06:53:29.632Z,983.98
2019-03-05T06:54:29.610Z,984.02
2019-03-05T06:55:29.592Z,984.07
2019-03-05T06:56:29.571Z,984.13
2019-03-05T06:57:29.553Z,984.02
2019-03-05T06:58:29.532Z,984.07
2019-03-05T06:59:29.512Z,984.03
2019-03-05T07:00:29.494Z,984.01
2019-03-05T07:01:29.478Z,984.02
2019-03-05T07:02:29.455Z,984.06
2019-03-05T07:03:29.429Z,984.01
2019-03-05T07:04:29.415Z,984.00
2019-03-05T07:05:29.390Z,984.03
2019-03-05T07:06:29.399Z,984.00
2019-03-05T07:07:29.372Z,984.00
2019-03-05T07:08:29.339Z,984.06
2019-03-05T07:09:29.316Z,984.03
2019-03-05T07:10:29.299Z,984.01
2019-03-05T07:11:29.273Z,983.99
2019-03-05T07:12:29.262Z,984.01
2019-03-05T07:13:29.239Z,983.95
2019-03-05T07:14:29.222Z,984.01
2019-03-05T07:15:29.201Z,984.06
2019-03-05T07:16:29.197Z,984.06
2019-03-05T07:17:29.161Z,984.04
2019-03-05T07:18:29.144Z,984.03
2019-03-05T07:19:29.119Z,984.04
2019-03-05T07:20:29.120Z,984.05
2019-03-05T07:21:29.084Z,984.05
2019-03-05T07:22:29.089Z,984.04
2019-03-05T07:23:29.046Z,984.04
2019-03-05T07:24:29.028Z,984.08
2019-03-05T07:25:29.008Z,984.10
2019-03-05T07:26:29.014Z,984.10
2019-03-05T07:27:28.968Z,984.07
2019-03-05T07:28:28.959Z,984.07
2019-03-05T07:29:28.930Z,984.05
2019-03-05T07:30:28.911Z,984.11
2019-03-05T07:31:28.891Z,984.14
2019-03-05T07:32:28.871Z,984.14
2019-03-05T07:33:28.853Z,984.15
2019-03-05T07:34:28.833Z,984.15
2019-03-05T07:35:28.814Z,984.13
2019-03-05T07:36:28.793Z,984.18
2019-03-05T07:37:28.776Z,984.14
2019-03-05T07:38:28.759Z,984.16
2019-03-05T07:39:28.738Z,984.16
2019-03-05T07:40:28.716Z,984.17
2019-03-05T07:41:28.703Z,984.07
2019-03-05T07:42:28.678Z,984.16
2019-03-05T07:43:36.408Z,984.18
2019-03-05T07:44:28.641Z,984.14
2019-03-05T07:45:28.622Z,984.17
2019-03-05T07:46:28.606Z,984.14
2019-03-05T07:47:28.583Z,984.13
2019-03-05T07:48:29.723Z,984.06
2019-03-05T07:49:28.542Z,984.04
2019-03-05T07:50:28.525Z,983.97
2019-03-05T07:51:28.506Z,984.04
2019-03-05T07:52:28.561Z,984.17
2019-03-05T07:53:36.724Z,984.06
2019-03-05T07:55:22.055Z,984.03
2019-03-05T07:56:22.021Z,984.00
2019-03-05T07:58:14.895Z,983.99
2019-03-05T07:59:14.863Z,983.95
2019-03-05T08:01:07.722Z,984.01
2019-03-05T08:02:07.694Z,984.03
2019-03-05T08:04:00.560Z,983.98
2019-03-05T08:05:00.539Z,983.91
2019-03-05T08:06:54.370Z,983.99
2019-03-05T08:07:54.344Z,984.01
2019-03-05T08:09:47.234Z,984.00
2019-03-05T08:10:47.174Z,984.11
2019-03-05T08:12:40.047Z,984.08
2019-03-05T08:13:40.013Z,984.14
2019-03-05T08:15:32.872Z,984.05
2019-03-05T08:16:32.843Z,984.07
2019-03-05T08:18:26.212Z,984.16
2019-03-05T08:19:26.176Z,984.06
2019-03-05T08:21:19.035Z,984.19
2019-03-05T08:22:19.010Z,984.09
2019-03-05T08:24:11.879Z,984.20
2019-03-05T08:25:11.838Z,984.14
2019-03-05T08:26:11.824Z,984.18
2019-03-05T08:27:11.804Z,984.26
2019-03-05T08:28:11.787Z,984.11
2019-03-05T08:29:11.791Z,984.03
2019-03-05T08:30:14.680Z,984.15
2019-03-05T08:31:11.731Z,984.03
2019-03-05T08:32:11.922Z,984.08
2019-03-05T08:33:12.002Z,984.12
2019-03-05T08:34:11.676Z,984.10
2019-03-05T08:35:11.655Z,984.09
2019-03-05T08:36:11.653Z,984.18
2019-03-05T08:37:13.433Z,984.16
2019-03-05T08:38:11.601Z,984.13
2019-03-05T08:39:11.583Z,984.19
2019-03-05T08:40:11.565Z,984.11
2019-03-05T08:41:11.546Z,984.13
2019-03-05T08:42:11.527Z,984.10
2019-03-05T08:43:11.529Z,984.18
2019-03-05T08:44:11.491Z,984.26
2019-03-05T08:45:11.474Z,984.15
2019-03-05T08:46:11.457Z,984.27
2019-03-05T08:47:11.435Z,984.21
2019-03-05T08:48:11.416Z,984.21
2019-03-05T08:49:11.399Z,984.27
2019-03-05T08:50:11.378Z,984.24
2019-03-05T08:51:11.364Z,984.12
2019-03-05T08:52:11.347Z,984.17
2019-03-05T08:53:11.330Z,984.24
2019-03-05T08:54:11.309Z,984.20
2019-03-05T08:55:11.293Z,984.20
2019-03-05T08:56:11.269Z,984.16
2019-03-05T08:57:11.298Z,984.24
2019-03-05T08:58:11.233Z,984.20
2019-03-05T08:59:11.217Z,984.18
2019-03-05T09:00:11.211Z,984.32
2019-03-05T09:01:11.177Z,984.18
2019-03-05T09:02:11.175Z,984.17
2019-03-05T09:03:11.143Z,984.27
2019-03-05T09:04:11.126Z,984.18
2019-03-05T09:05:11.112Z,984.20
2019-03-05T09:06:11.089Z,984.19
2019-03-05T09:07:11.111Z,984.13
2019-03-05T09:08:11.050Z,984.22
2019-03-05T09:09:11.029Z,984.23
2019-03-05T09:10:11.007Z,984.20
2019-03-05T09:11:11.011Z,984.21
2019-03-05T09:12:10.975Z,984.15
2019-03-05T09:13:10.960Z,984.12
2019-03-05T09:14:10.939Z,984.18
2019-03-05T09:15:10.913Z,984.25
2019-03-05T09:16:10.904Z,984.33
2019-03-05T09:17:10.883Z,984.17
2019-03-05T09:18:10.866Z,984.18
2019-03-05T09:19:10.848Z,984.21
2019-03-05T09:20:10.828Z,984.09
2019-03-05T09:21:10.812Z,984.19
2019-03-05T09:22:10.782Z,984.09
2019-03-05T09:23:10.772Z,984.13
2019-03-05T09:24:10.790Z,984.13
2019-03-05T09:25:10.739Z,984.15
2019-03-05T09:26:10.753Z,984.05
2019-03-05T09:27:10.704Z,984.07
2019-03-05T09:28:10.681Z,984.03
2019-03-05T09:29:10.664Z,984.03
2019-03-05T09:30:10.646Z,984.07
2019-03-05T09:31:10.628Z,984.03
2019-03-05T09:32:10.608Z,984.07
2019-03-05T09:33:10.590Z,984.03
2019-03-05T09:34:10.573Z,984.00
2019-03-05T09:35:10.559Z,984.00
2019-03-05T09:36:10.536Z,984.08
2019-03-05T09:37:10.517Z,984.11
2019-03-05T09:38:10.500Z,984.02
2019-03-05T09:39:10.481Z,984.01
2019-03-05T09:40:10.467Z,984.11
2019-03-05T09:41:10.445Z,984.07
2019-03-05T09:42:10.445Z,984.17
2019-03-05T09:43:10.402Z,984.18
2019-03-05T09:44:10.409Z,984.12
2019-03-05T09:45:10.371Z,984.16
2019-03-05T09:46:10.352Z,984.16
2019-03-05T09:47:10.334Z,984.21
2019-03-05T09:48:10.314Z,984.16
2019-03-05T09:49:10.298Z,984.21
2019-03-05T09:50:10.278Z,984.10
2019-03-05T09:51:10.255Z,984.23
2019-03-05T09:52:10.241Z,984.22
2019-03-05T09:53:10.225Z,984.22
2019-03-05T09:54:10.206Z,984.23
2019-03-05T09:55:10.188Z,984.18
2019-03-05T09:56:10.179Z,984.25
2019-03-05T09:57:10.150Z,984.25
2019-03-05T09:58:10.131Z,984.36
2019-03-05T09:59:10.120Z,984.33
2019-03-05T10:00:10.095Z,984.34
2019-03-05T10:01:10.076Z,984.26
2019-03-05T10:02:10.097Z,984.37
2019-03-05T10:03:10.041Z,984.40
2019-03-05T10:04:10.022Z,984.39
2019-03-05T10:05:10.003Z,984.50
2019-03-05T10:06:09.983Z,984.56
2019-03-05T10:07:18.581Z,984.54
2019-03-05T10:08:09.948Z,984.56
2019-03-05T10:09:09.927Z,984.46
2019-03-05T10:10:09.907Z,984.53
2019-03-05T10:11:09.890Z,984.56
2019-03-05T10:12:09.866Z,984.59
2019-03-05T10:13:09.858Z,984.63
2019-03-05T10:14:09.834Z,984.63
2019-03-05T10:15:09.815Z,984.58
2019-03-05T10:16:09.816Z,984.54
2019-03-05T10:17:09.794Z,984.59
2019-03-05T10:18:12.993Z,984.60
2019-03-05T10:19:09.762Z,984.59
2019-03-05T10:20:09.719Z,984.61
2019-03-05T10:21:11.826Z,984.59
2019-03-05T10:22:09.680Z,984.58
2019-03-05T10:23:09.663Z,984.74
2019-03-05T10:24:10.682Z,984.61
2019-03-05T10:25:09.625Z,984.70
2019-03-05T10:26:10.573Z,984.66
2019-03-05T10:27:09.585Z,984.68
2019-03-05T10:28:09.566Z,984.70
2019-03-05T10:29:09.547Z,984.75
2019-03-05T10:30:09.528Z,984.70
2019-03-05T10:31:09.501Z,984.69
2019-03-05T10:32:09.500Z,984.74
2019-03-05T10:33:09.480Z,984.71
2019-03-05T10:34:09.455Z,984.77
2019-03-05T10:35:09.443Z,984.71
2019-03-05T10:36:09.411Z,984.73
2019-03-05T10:37:12.641Z,984.81
2019-03-05T10:38:09.372Z,984.65
2019-03-05T10:39:09.353Z,984.73
2019-03-05T10:40:09.334Z,984.69
2019-03-05T10:41:09.318Z,984.68
2019-03-05T10:42:09.293Z,984.73
2019-03-05T10:43:09.292Z,984.74
2019-03-05T10:44:09.258Z,984.85
2019-03-05T10:45:09.238Z,984.88
2019-03-05T10:46:09.224Z,984.81
2019-03-05T10:47:09.201Z,984.79
2019-03-05T10:48:09.181Z,984.87
2019-03-05T10:49:09.160Z,984.85
2019-03-05T10:50:15.190Z,984.87
2019-03-05T10:54:32.147Z,984.76
2019-03-05T10:57:45.253Z,984.75
2019-03-05T10:58:45.220Z,984.74
2019-03-05T11:00:39.466Z,984.74
2019-03-05T11:01:46.660Z,984.71
2019-03-05T11:02:39.427Z,984.70
2019-03-05T11:11:52.650Z,984.67
2019-03-05T11:12:59.773Z,984.69
2019-03-05T11:14:45.703Z,984.62
2019-03-05T11:15:45.464Z,984.66
2019-03-05T11:16:45.648Z,984.67
2019-03-05T11:17:45.459Z,984.62
2019-03-05T11:18:49.085Z,984.64
2019-03-05T11:19:55.816Z,984.67
2019-03-05T11:21:39.165Z,984.65
2019-03-05T11:22:39.180Z,984.61
2019-03-05T11:24:32.005Z,984.67
2019-03-05T11:25:32.024Z,984.67
2019-03-05T11:26:32.061Z,984.68
2019-03-05T11:27:31.972Z,984.63
2019-03-05T11:28:32.524Z,984.65
2019-03-05T11:29:31.860Z,984.70
2019-03-05T11:30:36.230Z,984.70
2019-03-05T11:32:24.730Z,984.70
2019-03-05T11:33:24.772Z,984.72
2019-03-05T11:35:17.800Z,984.67
2019-03-05T11:36:17.722Z,984.63
2019-03-05T11:38:11.129Z,984.69
2019-03-05T11:39:11.130Z,984.70
2019-03-05T11:41:03.914Z,984.71
2019-03-05T11:42:03.954Z,984.70
2019-03-05T11:43:57.793Z,984.72
2019-03-05T11:45:07.195Z,984.67
2019-03-05T11:46:50.562Z,984.72
2019-03-05T11:47:50.537Z,984.73
2019-03-05T11:49:43.418Z,984.75
2019-03-05T11:50:43.359Z,984.74
2019-03-05T11:52:36.260Z,984.75
2019-03-05T11:53:36.218Z,984.75
2019-03-05T11:55:29.287Z,984.77
2019-03-05T11:56:29.029Z,984.73
2019-03-05T11:57:29.000Z,984.77
2019-03-05T11:58:29.208Z,984.76
2019-03-05T11:59:28.982Z,984.76
2019-03-05T12:00:28.942Z,984.77
2019-03-05T12:01:28.920Z,984.74
2019-03-05T12:02:28.904Z,984.74
2019-03-05T12:03:29.033Z,984.73
2019-03-05T12:06:34.724Z,984.79
2019-03-05T12:07:34.687Z,984.81
2019-03-05T12:09:27.551Z,984.80
2019-03-05T12:10:27.519Z,984.78
2019-03-05T12:12:20.385Z,984.78
2019-03-05T12:13:20.363Z,984.81
2019-03-05T12:15:13.232Z,984.76
2019-03-05T12:16:13.230Z,984.75
2019-03-05T12:18:09.086Z,984.80
2019-03-05T12:20:34.777Z,984.83
2019-03-05T12:21:41.967Z,984.83
2019-03-05T12:23:27.597Z,984.92
2019-03-05T12:24:27.612Z,984.88
2019-03-05T12:26:20.453Z,984.97
2019-03-05T12:27:20.450Z,984.98
2019-03-05T12:29:13.366Z,984.96
2019-03-05T12:30:13.261Z,984.96
2019-03-05T12:32:06.207Z,984.95
2019-03-05T12:33:06.667Z,984.98
2019-03-05T12:34:59.019Z,984.90
2019-03-05T12:35:59.044Z,984.92
2019-03-05T12:37:51.883Z,984.95
2019-03-05T12:38:51.872Z,984.95
2019-03-05T12:40:44.830Z,984.94
2019-03-05T12:41:44.767Z,985.01
2019-03-05T12:43:38.523Z,985.01
2019-03-05T12:44:38.517Z,985.01
2019-03-05T12:45:38.494Z,984.98
2019-03-05T12:46:38.465Z,985.00
2019-03-05T12:47:38.444Z,984.98
2019-03-05T12:48:40.223Z,985.03
2019-03-05T12:49:38.827Z,985.04
2019-03-05T12:50:38.429Z,985.07
2019-03-05T12:51:38.355Z,985.04
2019-03-05T12:52:38.379Z,985.06
2019-03-05T12:53:38.492Z,985.13
2019-03-05T12:54:38.290Z,985.06
2019-03-05T12:55:38.295Z,985.10
2019-03-05T13:02:28.777Z,985.08
2019-03-05T13:05:14.045Z,984.95
2019-03-05T13:08:07.934Z,985.00
2019-03-05T13:17:56.670Z,985.12
2019-03-05T13:23:09.683Z,985.14
2019-03-05T13:24:16.691Z,985.14
2019-03-05T13:26:07.686Z,985.15
2019-03-05T13:27:11.572Z,985.13
2019-03-05T13:29:22.448Z,985.16
2019-03-05T13:30:33.670Z,985.18
2019-03-05T13:37:20.372Z,985.26
2019-03-05T13:40:51.222Z,985.23
2019-03-05T13:41:41.200Z,985.31
2019-03-05T13:44:15.937Z,985.29
2019-03-05T16:47:21.451Z,986.78
2019-03-05T16:48:29.554Z,986.88
2019-03-05T16:50:14.239Z,986.89
2019-03-05T16:51:14.266Z,986.85
2019-03-05T16:53:07.134Z,986.89
2019-03-05T16:54:07.049Z,986.95
2019-03-05T16:55:07.039Z,986.90
2019-03-05T16:56:07.013Z,986.94
2019-03-05T16:57:06.994Z,986.93
2019-03-05T16:58:06.978Z,986.93
2019-03-05T16:59:06.970Z,986.95
2019-03-05T17:00:08.561Z,986.96
2019-03-05T17:01:06.919Z,986.92
2019-03-05T17:02:07.767Z,986.93
2019-03-05T17:03:06.893Z,986.98